< Typhoon 198709 1987 Season Typhoon 198711 >
Typhoon 198710 (NO-NAME)
General InformationTrack Information on Google MapsDetailed Wind InformationList of All Images || Disaster Info.ResourceGoogle EarthGE AnimationAtom FeedGeoJSON
Detalied Best Track (Time Zone = UTC)
Year Month Day Hour Lat. Long. Pressure (hPa) Wind (kt) Class Image Chart
1987 8 10 00 26.9 144.1 1012 0 2 Image Chart
1987 8 10 06 28.2 143.0 1012 0 2 Image Chart
1987 8 10 12 29.4 142.5 1010 0 2 Image Chart
1987 8 10 18 30.5 141.7 1006 35 3 Image Chart
1987 8 11 00 31.6 140.8 1006 35 3 Image Chart
1987 8 11 06 32.7 140.5 1010 0 2 Image Chart
1987 8 11 12 33.9 140.5 1012 0 2 Image Chart
1987 8 11 18 34.9 140.8 1012 0 2 Image Chart
1987 8 12 00 36.0 141.5 1012 0 2 Image Chart
1987 8 12 06 36.7 142.7 1012 0 2 Image Chart
1987 8 12 12 37.0 144.0 1012 0 2 Image Chart
1987 8 12 18 37.4 145.0 1012 0 2 Image Chart
1987 8 13 00 37.6 146.0 1012 0 2 Image Chart
1987 8 13 06 38.0 148.0 1010 0 6 Image Chart
1987 8 13 12 38.0 150.5 1008 0 6 Image Chart
1987 8 13 18 37.5 152.5 1008 0 6 Image Chart
1987 8 14 00 37.5 154.5 1008 0 6 Image Chart
1987 8 14 06 37.5 156.5 1008 0 6 Image Chart
1987 8 14 12 37.0 158.0 1008 0 6 Image Chart
1987 8 14 18 37.0 159.5 1008 0 6 Image Chart
1987 8 15 00 37.0 161.0 1008 0 6 Image Chart
1987 8 15 06 37.5 162.0 1004 0 6 Image Chart
1987 8 15 12 38.0 163.0 1004 0 6 Image Chart
1987 8 15 18 39.0 164.0 1004 0 6 Image Chart
1987 8 16 00 41.5 165.0 1004 0 6 Image Chart
1987 8 16 06 44.5 165.5 1002 0 6 Image Chart
1987 8 16 12 47.5 165.0 1004 0 6 Image Chart
Japan Meteorological Agency Best Track Data | Correction Date : 1992-10-21
< Typhoon 198709 1987 Season Typhoon 198711 >

Help